Hidden Valley, Valles Caldera, New Mexico Weather observations

Data are for 10 minute period ending at time listed.
 Day   Time   Solar   Ave.   Ave.  Ave.  Vector  Max.   Baro.   Total    
  of    of     Rad.   Air    Rel.  Wind   Wind   Wind  Press.  Precip.   
Year   Day            Temp.  Hum.  Speed  Dir.   Gust                    
2014   (MST)  Kw/m2    F      %     mph   deg.    mph    mb.     in.     
-------------------------------------------------------------------------
 297   18:30   0.00   36.2    79    0.1   235     0.5   753.5    0.00 
 297   18:40   0.00   33.8    82    0.0   187     0.3   753.5    0.00 
 297   18:50   0.00   32.0    86    0.1   312     0.6   753.5    0.00 
 297   19:00   0.00   30.3    87    0.3   343     0.8   753.6    0.00 
 297   19:10   0.00   29.1    87    0.5    80     0.8   753.6    0.00 
 297   19:20   0.00   28.2    91    0.4   350     0.9   753.6    0.00 
 297   19:30   0.00   27.4    92    0.0     6     0.5   753.6    0.00 
 297   19:40   0.00   27.1    92    0.0     0     0.0   753.6    0.00 
 297   19:50   0.00   26.7    94    0.1   349     0.6   753.8    0.00 
 297   20:00   0.00   26.0    94    0.1   337     0.9   753.9    0.00 
 297   20:10   0.00   26.1    96    0.3   328     0.6   754.0    0.00 
 297   20:20   0.00   25.1    93    0.3    51     0.8   754.0    0.00 
 297   20:30   0.00   25.1    95    0.9   335     1.4   754.2    0.00 
 297   20:40   0.00   24.2    95    0.4   166     0.7   754.2    0.00 
 297   20:50   0.00   24.9    96    0.5   171     1.2   754.3    0.00 
 297   21:00   0.00   23.3    94    0.7    20     1.4   754.4    0.00 
 297   21:10   0.00   22.5    95    0.2   108     0.8   754.4    0.00 
 297   21:20   0.00   22.1    94    0.1   127     0.4   754.5    0.00 
 297   21:30   0.00   22.5    96    0.3   156     0.7   754.5    0.00 
 297   21:40   0.00   21.5    95    0.6    18     0.9   754.5    0.00 
 297   21:50   0.00   21.3    96    0.4   270     1.0   754.5    0.00 
 297   22:00   0.00   21.6    96    0.3     7     0.9   754.5    0.00 
 297   22:10   0.00   20.2    94    0.2    86     0.6   754.5    0.00 
 297   22:20   0.00   20.8    96    0.6    20     1.2   754.6    0.00 
 297   22:30   0.00   20.3    95    0.4   258     1.1   754.6    0.00 
 297   22:40   0.00   20.4    96    0.2   161     0.7   754.5    0.00 
 297   22:50   0.00   19.9    96    0.3    25     0.8   754.6    0.00 
 297   23:00   0.00   20.1    96    0.4    56     0.8   754.6    0.00 
 297   23:10   0.00   20.2    96    0.4   274     1.0   754.5    0.00 
 297   23:20   0.00   19.5    96    0.2   277     0.7   754.5    0.00 
 297   23:30   0.00   19.0    96    0.3    82     0.8   754.5    0.00 
 297   23:40   0.00   18.6    94    0.1   350     0.9   754.5    0.00 
 297   23:50   0.00   18.4    96    0.0   287     0.4   754.6    0.00 
 298    0:00   0.00   18.4    96    0.1   325     0.7   754.5    0.00 
 298    0:10   0.00   17.3    94    0.5    14     0.8   754.5    0.00 
 298    0:20   0.00   17.1    95    0.3    30     0.8   754.5    0.00 
 298    0:30   0.00   17.6    96    0.0   260     0.3   754.5    0.00 
 298    0:40   0.00   17.9    96    0.1   137     0.5   754.4    0.00 
 298    0:50   0.00   17.7    96    0.2   166     0.5   754.4    0.00 
 298    1:00   0.00   17.8    95    0.3   122     0.7   754.4    0.00 
 298    1:10   0.00   17.7    96    0.5   352     1.3   754.3    0.00 
 298    1:20   0.00   16.4    93    0.6    14     1.1   754.3    0.00 
 298    1:30   0.00   16.4    95    0.0   231     0.3   754.4    0.00 
 298    1:40   0.00   17.3    96    0.1   292     0.6   754.4    0.00 
 298    1:50   0.00   16.7    94    0.0     0     0.0   754.4    0.00 
 298    2:00   0.95   15.7    93    0.0     0     0.0   754.4    0.00 
 298    2:10   1.26   16.0    94    0.0     0     0.0   754.3    0.00 
 298    2:20   1.26   15.8    94    0.0     0     0.0   754.3    0.00 
 298    2:30   1.34   15.7    94    0.0     0     0.0   754.3    0.00 
 298    2:40   1.48   15.6    94    0.0     0     0.0   754.2    0.00 
 298    2:50   1.59   15.5    95    0.0   298     0.4   754.2    0.00 
 298    3:00   1.71   15.4    95    0.0   309     0.3   754.2    0.00 
 298    3:10   1.77   15.6    95    0.1   321     0.4   754.1    0.00 
 298    3:20   1.64   15.5    96    0.1   306     0.6   754.0    0.00 
 298    3:30   1.62   15.1    95    0.0     0     0.0   754.0    0.00 
 298    3:40   1.73   14.8    94    0.1   354     0.4   754.0    0.00 
 298    3:50   1.74   14.6    94    0.1   344     0.3   754.0    0.00 
 298    4:00   1.79   14.6    94    0.0     0     0.0   754.0    0.00 
 298    4:10   1.84   14.4    94    0.0     0     0.0   754.2    0.00 
 298    4:20   1.85   14.1    94    0.0   201     0.3   754.2    0.00 
 298    4:30   1.45   14.3    95    0.3   167     0.7   754.2    0.00 
 298    4:40   1.20   14.3    94    0.2   319     0.7   754.1    0.00 
 298    4:50   1.44   13.7    94    0.1   278     0.4   754.1    0.00 
 298    5:00   1.81   14.3    95    0.2   323     0.7   754.1    0.00 
 298    5:10   1.91   13.4    92    0.1   352     0.5   754.1    0.00 
 298    5:20   1.81   14.0    94    0.1   300     0.3   754.1    0.00 
 298    5:30   0.45   14.5    95    0.2   151     0.6   754.1    0.00 
 298    5:40   0.00   14.5    94    0.2   289     1.0   754.1    0.00 
 298    5:50   0.00   13.7    93    0.0     0     0.0   754.1    0.00 
 298    6:00   0.00   13.7    93    0.2    42     0.7   754.1    0.00 
 298    6:10   0.00   13.4    93    0.2   343     0.7   754.1    0.00 
 298    6:20   0.00   13.8    94    0.0     0     0.0   754.2    0.00 
 298    6:30   0.01   14.3    94    0.1   227     0.5   754.2    0.00 
 298    6:40   0.01   14.3    94    0.0   277     0.3   754.2    0.00 
 298    6:50   0.01   14.0    93    0.0     0     0.0   754.3    0.00 
 298    7:00   0.01   14.6    94    0.0     0     0.0   754.3    0.00 
 298    7:10   0.02   14.6    93    0.1   256     0.6   754.3    0.00 
 298    7:20   0.12   16.5    95    0.0     0     0.0   754.4    0.00 
 298    7:30   0.46   21.9    92    0.0     0     0.0   754.4    0.00 
 298    7:40   0.52   27.3    85    0.0   213     0.0   754.5    0.00 
 298    7:50   0.31   30.9    78    0.0   158     0.4   754.5    0.00 
 298    8:00   0.29   34.3    74    0.0     0     0.0   754.5    0.00 
 298    8:10   0.37   35.8    70    0.3    26     0.8   754.5    0.00 
 298    8:20   0.39   36.1    70    0.4    65     0.9   754.4    0.00 
 298    8:30   0.42   37.3    66    0.4    30     0.8   754.4    0.00 
 298    8:40   0.44   40.3    62    0.1    53     0.8   754.4    0.00 
 298    8:50   0.47   42.8    56    0.3    77     0.9   754.4    0.00 
 298    9:00   0.48   44.3    53    0.3    12     1.0   754.3    0.00 
 298    9:10   0.51   46.4    49    0.6    21     1.3   754.3    0.00 
 298    9:20   0.54   49.2    42    0.5    65     1.6   754.2    0.00 
 298    9:30   0.56   50.8    35    0.5    41     1.3   754.1    0.00 
 298    9:40   0.59   53.5    31    0.7    90     1.7   754.0    0.00 
 298    9:50   0.61   56.3    28    0.6    13     1.4   753.9    0.00 
 298   10:00   0.63   59.2    25    0.6    36     1.4   753.8    0.00 
 298   10:10   0.64   60.8    24    1.0   347     1.7   753.7    0.00 
 298   10:20   0.66   64.1    23    0.8    46     2.0   753.6    0.00 
 298   10:30   0.68   67.0    20    0.7   173     2.3   753.5    0.00 
 298   10:40   0.69   66.4    21    3.4   195     6.3   753.4    0.00 
 298   10:50   0.71   66.1    21    3.3   196     6.8   753.4    0.00 
 298   11:00   0.72   66.5    20    3.3   199     5.8   753.3    0.00 
 298   11:10   0.73   66.5    20    3.6   192     7.7   753.2    0.00 
 298   11:20   0.73   67.1    20    4.0   188     7.5   753.1    0.00 
 298   11:30   0.74   66.8    20    4.4   202     7.1   753.0    0.00 
 298   11:40   0.74   66.7    20    4.3   204     8.4   753.0    0.00 
 298   11:50   0.75   66.8    20    4.8   195     8.8   752.9    0.00 
 298   12:00   0.75   66.6    20    5.1   198     8.3   752.9    0.00 
 298   12:10   0.74   66.5    19    4.5   200     7.0   752.8    0.00 
 298   12:20   0.74   67.4    19    3.1   199     6.0   752.7    0.00 
 298   12:30   0.73   68.1    19    3.2   188     7.1   752.5    0.00 
 298   12:40   0.73   68.1    18    3.3   192     7.0   752.4    0.00 
 298   12:50   0.72   68.1    17    1.8   220     3.7   752.3    0.00 
 298   13:00   0.71   68.2    17    3.0   212     6.9   752.1    0.00 
 298   13:10   0.69   68.6    17    2.9   208     5.8   752.1    0.00 
 298   13:20   0.68   67.9    18    3.6   202     7.3   752.0    0.00 
 298   13:30   0.66   67.8    18    4.1   184     7.1   751.8    0.00 
 298   13:40   0.65   67.8    18    4.3   199     8.0   751.8    0.00 
 298   13:50   0.63   68.0    17    4.0   192     7.8   751.8    0.00 
 298   14:00   0.61   68.1    18    3.9   204     6.8   751.7    0.00 
 298   14:10   0.58   68.0    18    3.8   194     6.2   751.7    0.00 
 298   14:20   0.56   68.0    17    2.9   210     5.8   751.6    0.00 
 298   14:30   0.54   68.3    17    3.8   200     5.7   751.6    0.00 
 298   14:40   0.51   67.7    17    3.6   192     7.1   751.5    0.00 
 298   14:50   0.47   67.8    17    2.8   196     6.9   751.6    0.00 
 298   15:00   0.44   67.5    18    2.9   219     5.7   751.5    0.00 
 298   15:10   0.40   67.7    18    3.2   206     5.9   751.5    0.00 
 298   15:20   0.38   67.0    18    3.3   205     6.7   751.4    0.00 
 298   15:30   0.35   66.6    19    3.2   187     6.5   751.4    0.00 
 298   15:40   0.32   66.9    19    2.9   191     5.3   751.3    0.00 
 298   15:50   0.28   66.1    19    2.8   181     5.0   751.3    0.00 
 298   16:00   0.26   66.2    20    2.6   203     5.3   751.3    0.00 
 298   16:10   0.22   65.4    19    3.7   212     6.0   751.2    0.00 
 298   16:20   0.19   64.7    21    1.8   243     3.7   751.2    0.00 
 298   16:30   0.11   62.9    22    2.2   258     4.1   751.2    0.00 
 298   16:40   0.02   61.6    22    2.1   240     4.6   751.2    0.00 
 298   16:50   0.02   60.2    24    1.5   250     2.6   751.1    0.00 
 298   17:00   0.01   57.1    30    1.9   240     3.3   751.1    0.00 
 298   17:10   0.01   53.8    36    2.0   245     2.6   751.0    0.00 
 298   17:20   0.01   52.5    38    1.9   247     2.6   751.1    0.00 
 298   17:30   0.00   52.1    39    1.8   251     2.8   751.1    0.00 
 298   17:40   0.00   49.0    46    1.3   239     2.0   751.1    0.00 
 298   17:50   0.00   44.8    52    1.1    88     1.8   751.1    0.00 
 298   18:00   0.00   40.8    60    0.3    60     1.0   751.1    0.00 
 298   18:10   0.00   39.0    63    0.2    23     0.8   751.1    0.00 
 298   18:20   0.00   38.6    66    0.3   146     1.0   751.2    0.00 

Return to Hidden Valley, Valles Caldera graphs page.


Western Regional Climate Center,wrcc@dri.edu